首页
METAR-TAF:

METAR-TAF

机场 :

通孔廷国际机场

德古斯加巴, 洪都拉斯

纬度: 14-03N, 经度: 087-13W, 海拔: 994米

当前天气观测

该预报发布于15分钟前的23:00 UTC
风速4节,风向
温度 28°C
湿度 51%
气压 1015 hPa
能见度10公里或以上
少量云层高于3200英尺
散云层高于25000英尺

METAR: MHTG 232300Z 09004KT 9999 FEW032 SCT250 28/17 Q1015 A2997 NOSIG

时间: 17:15 (23:15 UTC)

预报

该预报发布于6小时和25分钟前的16:50 UTC
预报有效从23日的 18点(UTC)到 24日的 18点(UTC)
风速5节,风向东转东北
能见度10公里或以上
散云层高于2800英尺, 塔状积云.
散云层高于10000英尺
几率 30%
从 23日的 23点(UTC)到 24日的 01点(UTC)
能見度: 8000
散云层高于2800英尺, 塔状积云.
少量云层高于3000英尺, 积雨云.
附近有阵雨
成为
从 24日的 02点(UTC)到 24日的 04点(UTC)
风速4节,风向东南
能见度10公里或以上
少量云层高于1600英尺
散云层高于2800英尺
成为
从 24日的 10点(UTC)到 24日的 12点(UTC)
风速节,风向
能見度: 7000
少量云层高于600英尺
散云层高于2600英尺
成为
从 24日的 13点(UTC)到 24日的 15点(UTC)
风速5节,风向东转东北
能见度10公里或以上
散云层高于2800英尺

TAF: MHTG 231650Z 2318/2418 07005KT 9999 SCT028TCU SCT100 TX29/2320Z TN17/2412Z PROB30 2323/2401 8000 VCSH SCT028TCU FEW030CB BECMG 2402/2404 13004KT 9999 NSW FEW016 SCT028 BECMG 2410/2412 00000KT 7000 NSW FEW006 SCT026 BECMG 2413/2415 06005KT 9999 SCT028

超过4000个机场的气象观测和天气预报(METAR&TAF报告)。

可查询的气象台以黄色和红色小点在地图上表示。

将鼠标移到小点上方,可查看气象台名称。

然后点击查看天气观测和预报。

如需切换地图:点击带黑十字的绿色按钮放大地图;点击带横线的绿色按钮缩小地图;或者点击绿色箭头查看邻近地区的地图。


METAR-TAF: